Buoy 46566

sailwx.info

Track history (hours):
 
Tides and Currents Weather Stations Pressure Air Temp Water Temp Dewpoint Dewpoint Depression Visibility Wind Speed Wind Dir Waves Ship Positions

Liao Sui Yu 46566

Last reported at 2018-May-26 07:00 UTC. Time now 2018-May-26 13:30 UTC.
Position N 31°28' W 138°47'.

Length 30 m.

Type: Fishing. MMSI: 412052352.

Date/timePositionNaut miles runAvg speedWind from/ knotsBaromVisibWave heightAir tempDewpointWater temp
2018-May-26 07:00N 31°28' W 138°47'2 1.5
2018-May-26 06:00N 31°28' W 138°46'1 0.6
2018-May-26 05:00N 31°29' W 138°46'1 1.2
2018-May-26 04:00N 31°28' W 138°44'1 0.8
2018-May-26 03:00N 31°29' W 138°44'1 0.8
2018-May-26 02:00N 31°28' W 138°43'1 1.2
2018-May-26 01:00N 31°29' W 138°42'1 1.2
2018-May-26 00:00N 31°29' W 138°41'3 2.8
2018-May-25 23:00N 31°31' W 138°38'0 0.0
2018-May-25 22:00N 31°31' W 138°38'1 0.3
2018-May-25 20:00N 31°30' W 138°38'2 0.8
2018-May-25 18:00N 31°31' W 138°37'0 0.0
2018-May-25 17:00N 31°31' W 138°37'1 1.3
2018-May-25 16:00N 31°32' W 138°36'0 0.0
2018-May-25 15:00N 31°32' W 138°36'2 1.5
2018-May-25 14:00N 31°32' W 138°34'2 1.5
2018-May-25 13:00N 31°32' W 138°32'0 0.0
2018-May-25 12:00N 31°32' W 138°32'1 0.2
2018-May-25 07:00N 31°32' W 138°31'1 0.8
2018-May-25 06:00N 31°32' W 138°31'1 0.6
2018-May-25 05:00N 31°32' W 138°31'1 1.0
2018-May-25 04:00N 31°32' W 138°29'1 1.0
2018-May-25 03:00N 31°32' W 138°28'1 1.2
2018-May-25 02:00N 31°33' W 138°27'0 0.0
2018-May-25 01:00N 31°33' W 138°27'2 1.6
2018-May-25 00:00N 31°34' W 138°26'0 0.0
2018-May-24 23:00N 31°34' W 138°26'0 0.0
2018-May-24 22:00N 31°34' W 138°26'4 1.3
2018-May-24 19:00N 31°36' W 138°22'1 1.2
2018-May-24 18:00N 31°37' W 138°20'0 0.0
2018-May-24 17:00N 31°37' W 138°20'1 1.2
2018-May-24 16:00N 31°38' W 138°20'0 0.0
2018-May-24 15:00N 31°38' W 138°20'1 1.2
2018-May-24 14:00N 31°38' W 138°19'1 0.6
2018-May-24 13:00N 31°39' W 138°19'2 2.1
2018-May-24 12:00N 31°38' W 138°17'2 2.1
2018-May-24 11:00N 31°39' W 138°19'3 0.6
2018-May-24 07:00N 31°39' W 138°16'1 0.5
2018-May-24 06:00N 31°39' W 138°16'1 0.5
2018-May-24 05:00N 31°39' W 138°15'1 1.0
2018-May-24 04:00N 31°39' W 138°14'3 1.4
2018-May-24 02:00N 31°40' W 138°11'0 0.0
2018-May-24 01:00N 31°40' W 138°11'2 1.5
2018-May-24 00:00N 31°40' W 138°09'0 0.0
2018-May-23 23:00N 31°40' W 138°09'5 1.7
2018-May-23 20:00N 31°43' W 138°04'1 0.6
2018-May-23 19:00N 31°43' W 138°04'1 0.6
2018-May-23 18:00N 31°44' W 138°04'1 1.3
2018-May-23 17:00N 31°45' W 138°03'1 0.6
2018-May-23 16:00N 31°46' W 138°03'1 0.8
2018-May-23 15:00N 31°46' W 138°02'1 1.2
2018-May-23 14:00N 31°46' W 138°04'0 0.0
2018-May-23 13:00N 31°46' W 138°04'3 3.0
2018-May-23 12:00N 31°43' W 138°04'3 3.0
2018-May-23 11:00N 31°46' W 138°04'3 0.8
2018-May-23 07:00N 31°43' W 138°04'1 0.8
2018-May-23 06:00N 31°42' W 138°03'1 0.6
2018-May-23 05:00N 31°43' W 138°03'1 0.6
2018-May-23 04:00N 31°42' W 138°03'1 0.5
2018-May-23 03:00N 31°42' W 138°02'0 0.0
2018-May-23 02:00N 31°42' W 138°02'0 0.0
2018-May-23 01:00N 31°42' W 138°02'0 0.0
2018-May-22 23:00N 31°42' W 138°02'2 0.4
2018-May-22 19:00N 31°43' W 138°01'1 0.6
2018-May-22 18:00N 31°43' W 138°01'1 0.6
2018-May-22 17:00N 31°44' W 138°01'1 1.2
2018-May-22 16:00N 31°44' W 138°02'0 0.0
2018-May-22 15:00N 31°44' W 138°02'1 0.5
2018-May-22 14:00N 31°44' W 138°02'0 0.0
2018-May-22 13:00N 31°44' W 138°02'2 1.8
2018-May-22 12:00N 31°43' W 138°02'2 1.9
2018-May-22 11:00N 31°44' W 138°03'2 0.6
2018-May-22 07:00N 31°42' W 138°02'0 0.0
2018-May-22 06:00N 31°42' W 138°02'1 1.2
2018-May-22 05:00N 31°41' W 138°01'1 0.5
2018-May-22 04:00N 31°41' W 138°01'1 0.5
2018-May-22 03:00N 31°41' W 138°00'1 0.5
2018-May-22 02:00N 31°41' W 137°59'0 0.0
2018-May-22 01:00N 31°41' W 137°59'1 1.2
2018-May-22 00:00N 31°42' W 137°58'0 0.0
2018-May-21 23:00N 31°42' W 137°58'3 1.0
2018-May-21 20:00N 31°44' W 137°55'1 0.8
2018-May-21 19:00N 31°44' W 137°55'1 1.3
2018-May-21 18:00N 31°46' W 137°54'1 0.5
2018-May-21 17:00N 31°46' W 137°55'0 0.0
2018-May-21 16:00N 31°46' W 137°55'1 0.6
2018-May-21 15:00N 31°46' W 137°55'0 0.0
2018-May-21 14:00N 31°46' W 137°55'0 0.0
2018-May-21 13:00N 31°46' W 137°55'1 0.5
2018-May-21 12:00N 31°46' W 137°55'0 0.0
2018-May-21 11:00N 31°46' W 137°55'4 0.8
2018-May-21 06:00N 31°44' W 137°51'2 1.6
2018-May-21 05:00N 31°45' W 137°49'1 0.5
2018-May-21 04:00N 31°45' W 137°49'1 1.0
2018-May-21 03:00N 31°45' W 137°47'1 1.2
2018-May-21 02:00N 31°46' W 137°46'2 0.8
2018-May-21 00:00N 31°46' W 137°44'0 0.0
2018-May-20 23:00N 31°46' W 137°44'4 1.1
2018-May-20 19:00N 31°49' W 137°40'1 0.5
2018-May-20 18:00N 31°49' W 137°40'1 0.5
2018-May-20 17:00N 31°49' W 137°39'1 0.6
2018-May-20 15:00N 31°49' W 137°38'1 0.8
2018-May-20 14:00N 31°50' W 137°37'1 1.0
2018-May-20 13:00N 31°50' W 137°36'4 4.1
2018-May-20 12:00N 31°49' W 137°31'1 0.2
2018-May-20 07:00N 31°49' W 137°31'2 2.1
2018-May-20 06:00N 31°49' W 137°28'1 0.8
2018-May-20 05:00N 31°50' W 137°28'1 0.5
2018-May-20 04:00N 31°50' W 137°27'4 3.8
2018-May-20 03:00N 31°51' W 137°23'0 0.0
2018-May-20 02:00N 31°51' W 137°23'2 0.8
2018-May-20 00:00N 31°52' W 137°21'0 0.0
2018-May-19 23:00N 31°52' W 137°21'6 2.0
2018-May-19 20:00N 31°54' W 137°14'2 1.6
2018-May-19 19:00N 31°55' W 137°13'0 0.0
2018-May-19 18:00N 31°55' W 137°13'1 1.0
2018-May-19 17:00N 31°55' W 137°12'1 1.3
2018-May-19 16:00N 31°56' W 137°11'2 1.6
2018-May-19 15:00N 31°58' W 137°10'0 0.0
2018-May-19 14:00N 31°58' W 137°10'6 5.9
2018-May-19 13:00N 31°59' W 137°04'0 0.0
2018-May-19 12:00N 31°59' W 137°04'0 0.0
2018-May-19 07:00N 31°59' W 137°04'1 1.2
2018-May-19 06:00N 32°00' W 137°02'1 1.2
2018-May-19 05:00N 32°01' W 137°01'1 0.6
2018-May-19 03:00N 32°01' W 137°00'2 1.9
2018-May-19 02:00N 32°02' W 136°58'2 1.6
2018-May-19 01:00N 32°04' W 136°57'0 0.0
2018-May-19 00:00N 32°04' W 136°57'1 0.8
2018-May-18 23:00N 32°04' W 136°56'4 1.4
2018-May-18 20:00N 32°08' W 136°55'1 0.8
2018-May-18 19:00N 32°09' W 136°56'1 0.8
2018-May-18 18:00N 32°10' W 136°55'1 0.8
2018-May-18 17:00N 32°10' W 136°56'1 0.5
2018-May-18 16:00N 32°10' W 136°56'1 0.6
2018-May-18 15:00N 32°11' W 136°56'1 0.8
2018-May-18 14:00N 32°11' W 136°56'1 0.5
2018-May-18 13:00N 32°11' W 136°56'0 0.0
2018-May-18 12:00N 32°11' W 136°56'0 0.0
2018-May-18 07:00N 32°11' W 136°56'0 0.0
2018-May-18 06:00N 32°11' W 136°56'1 0.7
2018-May-18 04:00N 32°13' W 136°56'1 0.6
2018-May-18 03:00N 32°12' W 136°56'0 0.0
2018-May-18 02:00N 32°12' W 136°56'1 1.3
2018-May-18 01:00N 32°13' W 136°55'1 0.6
2018-May-18 00:00N 32°13' W 136°55'0 0.0
2018-May-17 23:00N 32°13' W 136°55'0 0.0
2018-May-17 22:00N 32°13' W 136°55'1 0.6
2018-May-17 20:00N 32°13' W 136°54'1 0.6
2018-May-17 19:00N 32°14' W 136°54'1 0.5
2018-May-17 18:00N 32°14' W 136°53'1 0.8
2018-May-17 17:00N 32°14' W 136°53'1 0.5
2018-May-17 16:00N 32°14' W 136°53'1 0.8
2018-May-17 15:00N 32°15' W 136°53'1 0.8
2018-May-17 14:00N 32°16' W 136°52'1 1.3
2018-May-17 13:00N 32°17' W 136°52'1 1.3
2018-May-17 12:00N 32°16' W 136°51'1 0.2
2018-May-17 07:00N 32°17' W 136°51'1 0.8
2018-May-17 06:00N 32°17' W 136°50'1 0.5
2018-May-17 04:00N 32°17' W 136°49'1 0.8
2018-May-17 03:00N 32°18' W 136°49'0 0.0
2018-May-17 02:00N 32°18' W 136°49'2 1.6
2018-May-17 01:00N 32°19' W 136°47'1 1.2
2018-May-17 00:00N 32°20' W 136°46'0 0.0
2018-May-16 23:00N 32°20' W 136°46'2 2.5
2018-May-16 22:00N 32°22' W 136°46'0 0.0
2018-May-16 20:00N 32°22' W 136°46'2 0.9
2018-May-16 18:00N 32°24' W 136°45'1 0.8
2018-May-16 17:00N 32°25' W 136°46'1 0.6
2018-May-16 16:00N 32°25' W 136°46'1 0.8
2018-May-16 15:00N 32°26' W 136°45'1 0.8
2018-May-16 14:00N 32°26' W 136°46'4 3.6
2018-May-16 13:00N 32°29' W 136°48'0 0.0
2018-May-16 12:00N 32°29' W 136°48'0 0.0
2018-May-16 07:00N 32°29' W 136°48'  
Track history (hours):
 
Tides and Currents Weather Stations Pressure Air Temp Water Temp Dewpoint Dewpoint Depression Visibility Wind Speed Wind Dir Waves Ship Positions

Liao Sui Yu 46566

Last reported at 2018-May-26 07:00 UTC. Time now 2018-May-26 13:30 UTC.
Position N 31°28' W 138°47'.

Length 30 m.

Type: Fishing. MMSI: 412052352.

Date/timePositionNaut miles runAvg speedWind from/ knotsBaromVisibWave heightAir tempDewpointWater temp
2018-May-26 07:00N 31°28' W 138°47'2 1.5
2018-May-26 06:00N 31°28' W 138°46'1 0.6
2018-May-26 05:00N 31°29' W 138°46'1 1.2
2018-May-26 04:00N 31°28' W 138°44'1 0.8
2018-May-26 03:00N 31°29' W 138°44'1 0.8
2018-May-26 02:00N 31°28' W 138°43'1 1.2
2018-May-26 01:00N 31°29' W 138°42'1 1.2
2018-May-26 00:00N 31°29' W 138°41'3 2.8
2018-May-25 23:00N 31°31' W 138°38'0 0.0
2018-May-25 22:00N 31°31' W 138°38'1 0.3
2018-May-25 20:00N 31°30' W 138°38'2 0.8
2018-May-25 18:00N 31°31' W 138°37'0 0.0
2018-May-25 17:00N 31°31' W 138°37'1 1.3
2018-May-25 16:00N 31°32' W 138°36'0 0.0
2018-May-25 15:00N 31°32' W 138°36'2 1.5
2018-May-25 14:00N 31°32' W 138°34'2 1.5
2018-May-25 13:00N 31°32' W 138°32'0 0.0
2018-May-25 12:00N 31°32' W 138°32'1 0.2
2018-May-25 07:00N 31°32' W 138°31'1 0.8
2018-May-25 06:00N 31°32' W 138°31'1 0.6
2018-May-25 05:00N 31°32' W 138°31'1 1.0
2018-May-25 04:00N 31°32' W 138°29'1 1.0
2018-May-25 03:00N 31°32' W 138°28'1 1.2
2018-May-25 02:00N 31°33' W 138°27'0 0.0
2018-May-25 01:00N 31°33' W 138°27'2 1.6
2018-May-25 00:00N 31°34' W 138°26'0 0.0
2018-May-24 23:00N 31°34' W 138°26'0 0.0
2018-May-24 22:00N 31°34' W 138°26'4 1.3
2018-May-24 19:00N 31°36' W 138°22'1 1.2
2018-May-24 18:00N 31°37' W 138°20'0 0.0
2018-May-24 17:00N 31°37' W 138°20'1 1.2
2018-May-24 16:00N 31°38' W 138°20'0 0.0
2018-May-24 15:00N 31°38' W 138°20'1 1.2
2018-May-24 14:00N 31°38' W 138°19'1 0.6
2018-May-24 13:00N 31°39' W 138°19'2 2.1
2018-May-24 12:00N 31°38' W 138°17'2 2.1
2018-May-24 11:00N 31°39' W 138°19'3 0.6
2018-May-24 07:00N 31°39' W 138°16'1 0.5
2018-May-24 06:00N 31°39' W 138°16'1 0.5
2018-May-24 05:00N 31°39' W 138°15'1 1.0
2018-May-24 04:00N 31°39' W 138°14'3 1.4
2018-May-24 02:00N 31°40' W 138°11'0 0.0
2018-May-24 01:00N 31°40' W 138°11'2 1.5
2018-May-24 00:00N 31°40' W 138°09'0 0.0
2018-May-23 23:00N 31°40' W 138°09'5 1.7
2018-May-23 20:00N 31°43' W 138°04'1 0.6
2018-May-23 19:00N 31°43' W 138°04'1 0.6
2018-May-23 18:00N 31°44' W 138°04'1 1.3
2018-May-23 17:00N 31°45' W 138°03'1 0.6
2018-May-23 16:00N 31°46' W 138°03'1 0.8
2018-May-23 15:00N 31°46' W 138°02'1 1.2
2018-May-23 14:00N 31°46' W 138°04'0 0.0
2018-May-23 13:00N 31°46' W 138°04'3 3.0
2018-May-23 12:00N 31°43' W 138°04'3 3.0
2018-May-23 11:00N 31°46' W 138°04'3 0.8
2018-May-23 07:00N 31°43' W 138°04'1 0.8
2018-May-23 06:00N 31°42' W 138°03'1 0.6
2018-May-23 05:00N 31°43' W 138°03'1 0.6
2018-May-23 04:00N 31°42' W 138°03'1 0.5
2018-May-23 03:00N 31°42' W 138°02'0 0.0
2018-May-23 02:00N 31°42' W 138°02'0 0.0
2018-May-23 01:00N 31°42' W 138°02'0 0.0
2018-May-22 23:00N 31°42' W 138°02'2 0.4
2018-May-22 19:00N 31°43' W 138°01'1 0.6
2018-May-22 18:00N 31°43' W 138°01'1 0.6
2018-May-22 17:00N 31°44' W 138°01'1 1.2
2018-May-22 16:00N 31°44' W 138°02'0 0.0
2018-May-22 15:00N 31°44' W 138°02'1 0.5
2018-May-22 14:00N 31°44' W 138°02'0 0.0
2018-May-22 13:00N 31°44' W 138°02'2 1.8
2018-May-22 12:00N 31°43' W 138°02'2 1.9
2018-May-22 11:00N 31°44' W 138°03'2 0.6
2018-May-22 07:00N 31°42' W 138°02'0 0.0
2018-May-22 06:00N 31°42' W 138°02'1 1.2
2018-May-22 05:00N 31°41' W 138°01'1 0.5
2018-May-22 04:00N 31°41' W 138°01'1 0.5
2018-May-22 03:00N 31°41' W 138°00'1 0.5
2018-May-22 02:00N 31°41' W 137°59'0 0.0
2018-May-22 01:00N 31°41' W 137°59'1 1.2
2018-May-22 00:00N 31°42' W 137°58'0 0.0
2018-May-21 23:00N 31°42' W 137°58'3 1.0
2018-May-21 20:00N 31°44' W 137°55'1 0.8
2018-May-21 19:00N 31°44' W 137°55'1 1.3
2018-May-21 18:00N 31°46' W 137°54'1 0.5
2018-May-21 17:00N 31°46' W 137°55'0 0.0
2018-May-21 16:00N 31°46' W 137°55'1 0.6
2018-May-21 15:00N 31°46' W 137°55'0 0.0
2018-May-21 14:00N 31°46' W 137°55'0 0.0
2018-May-21 13:00N 31°46' W 137°55'1 0.5
2018-May-21 12:00N 31°46' W 137°55'0 0.0
2018-May-21 11:00N 31°46' W 137°55'4 0.8
2018-May-21 06:00N 31°44' W 137°51'2 1.6
2018-May-21 05:00N 31°45' W 137°49'1 0.5
2018-May-21 04:00N 31°45' W 137°49'1 1.0
2018-May-21 03:00N 31°45' W 137°47'1 1.2
2018-May-21 02:00N 31°46' W 137°46'2 0.8
2018-May-21 00:00N 31°46' W 137°44'0 0.0
2018-May-20 23:00N 31°46' W 137°44'4 1.1
2018-May-20 19:00N 31°49' W 137°40'1 0.5
2018-May-20 18:00N 31°49' W 137°40'1 0.5
2018-May-20 17:00N 31°49' W 137°39'1 0.6
2018-May-20 15:00N 31°49' W 137°38'1 0.8
2018-May-20 14:00N 31°50' W 137°37'1 1.0
2018-May-20 13:00N 31°50' W 137°36'4 4.1
2018-May-20 12:00N 31°49' W 137°31'1 0.2
2018-May-20 07:00N 31°49' W 137°31'2 2.1
2018-May-20 06:00N 31°49' W 137°28'1 0.8
2018-May-20 05:00N 31°50' W 137°28'1 0.5
2018-May-20 04:00N 31°50' W 137°27'4 3.8
2018-May-20 03:00N 31°51' W 137°23'0 0.0
2018-May-20 02:00N 31°51' W 137°23'2 0.8
2018-May-20 00:00N 31°52' W 137°21'0 0.0
2018-May-19 23:00N 31°52' W 137°21'6 2.0
2018-May-19 20:00N 31°54' W 137°14'2 1.6
2018-May-19 19:00N 31°55' W 137°13'0 0.0
2018-May-19 18:00N 31°55' W 137°13'1 1.0
2018-May-19 17:00N 31°55' W 137°12'1 1.3
2018-May-19 16:00N 31°56' W 137°11'2 1.6
2018-May-19 15:00N 31°58' W 137°10'0 0.0
2018-May-19 14:00N 31°58' W 137°10'6 5.9
2018-May-19 13:00N 31°59' W 137°04'0 0.0
2018-May-19 12:00N 31°59' W 137°04'0 0.0
2018-May-19 07:00N 31°59' W 137°04'1 1.2
2018-May-19 06:00N 32°00' W 137°02'1 1.2
2018-May-19 05:00N 32°01' W 137°01'1 0.6
2018-May-19 03:00N 32°01' W 137°00'2 1.9
2018-May-19 02:00N 32°02' W 136°58'2 1.6
2018-May-19 01:00N 32°04' W 136°57'0 0.0
2018-May-19 00:00N 32°04' W 136°57'1 0.8
2018-May-18 23:00N 32°04' W 136°56'4 1.4
2018-May-18 20:00N 32°08' W 136°55'1 0.8
2018-May-18 19:00N 32°09' W 136°56'1 0.8
2018-May-18 18:00N 32°10' W 136°55'1 0.8
2018-May-18 17:00N 32°10' W 136°56'1 0.5
2018-May-18 16:00N 32°10' W 136°56'1 0.6
2018-May-18 15:00N 32°11' W 136°56'1 0.8
2018-May-18 14:00N 32°11' W 136°56'1 0.5
2018-May-18 13:00N 32°11' W 136°56'0 0.0
2018-May-18 12:00N 32°11' W 136°56'0 0.0
2018-May-18 07:00N 32°11' W 136°56'0 0.0
2018-May-18 06:00N 32°11' W 136°56'1 0.7
2018-May-18 04:00N 32°13' W 136°56'1 0.6
2018-May-18 03:00N 32°12' W 136°56'0 0.0
2018-May-18 02:00N 32°12' W 136°56'1 1.3
2018-May-18 01:00N 32°13' W 136°55'1 0.6
2018-May-18 00:00N 32°13' W 136°55'0 0.0
2018-May-17 23:00N 32°13' W 136°55'0 0.0
2018-May-17 22:00N 32°13' W 136°55'1 0.6
2018-May-17 20:00N 32°13' W 136°54'1 0.6
2018-May-17 19:00N 32°14' W 136°54'1 0.5
2018-May-17 18:00N 32°14' W 136°53'1 0.8
2018-May-17 17:00N 32°14' W 136°53'1 0.5
2018-May-17 16:00N 32°14' W 136°53'1 0.8
2018-May-17 15:00N 32°15' W 136°53'1 0.8
2018-May-17 14:00N 32°16' W 136°52'1 1.3
2018-May-17 13:00N 32°17' W 136°52'1 1.3
2018-May-17 12:00N 32°16' W 136°51'1 0.2
2018-May-17 07:00N 32°17' W 136°51'1 0.8
2018-May-17 06:00N 32°17' W 136°50'1 0.5
2018-May-17 04:00N 32°17' W 136°49'1 0.8
2018-May-17 03:00N 32°18' W 136°49'0 0.0
2018-May-17 02:00N 32°18' W 136°49'2 1.6
2018-May-17 01:00N 32°19' W 136°47'1 1.2
2018-May-17 00:00N 32°20' W 136°46'0 0.0
2018-May-16 23:00N 32°20' W 136°46'2 2.5
2018-May-16 22:00N 32°22' W 136°46'0 0.0
2018-May-16 20:00N 32°22' W 136°46'2 0.9
2018-May-16 18:00N 32°24' W 136°45'1 0.8
2018-May-16 17:00N 32°25' W 136°46'1 0.6
2018-May-16 16:00N 32°25' W 136°46'1 0.8
2018-May-16 15:00N 32°26' W 136°45'1 0.8
2018-May-16 14:00N 32°26' W 136°46'4 3.6
2018-May-16 13:00N 32°29' W 136°48'0 0.0
2018-May-16 12:00N 32°29' W 136°48'0 0.0
2018-May-16 07:00N 32°29' W 136°48'  

Dump ship's entire track history